createdAt,value
2017-08-31T00:00:18.113Z,0
2017-08-31T00:00:58.680Z,0
2017-08-31T00:01:39.218Z,0
2017-08-31T00:02:19.743Z,0
2017-08-31T00:03:00.270Z,0
2017-08-31T00:03:40.845Z,0
2017-08-31T00:04:21.356Z,0
2017-08-31T00:05:01.926Z,0
2017-08-31T00:05:42.454Z,0
2017-08-31T00:06:23.006Z,0
2017-08-31T00:07:03.509Z,0
2017-08-31T00:07:44.070Z,0
2017-08-31T00:08:24.628Z,0
2017-08-31T00:09:05.171Z,0
2017-08-31T00:09:45.661Z,0
2017-08-31T00:10:26.209Z,0
2017-08-31T00:11:06.724Z,0
2017-08-31T00:11:47.235Z,0
2017-08-31T00:12:27.809Z,0
2017-08-31T00:13:08.343Z,0
2017-08-31T00:13:48.868Z,0
2017-08-31T00:14:29.390Z,0
2017-08-31T00:15:09.925Z,0
2017-08-31T00:15:50.482Z,0
2017-08-31T00:16:31.020Z,0
2017-08-31T00:17:11.563Z,0
2017-08-31T00:17:52.151Z,0
2017-08-31T00:18:32.675Z,0
2017-08-31T00:19:13.224Z,0
2017-08-31T00:19:53.726Z,0
2017-08-31T00:20:34.275Z,0
2017-08-31T00:21:14.806Z,0
2017-08-31T00:21:55.338Z,0
2017-08-31T00:22:35.949Z,0
2017-08-31T00:23:16.453Z,0
2017-08-31T00:23:57.006Z,0
2017-08-31T00:24:37.517Z,0
2017-08-31T00:25:18.049Z,0
2017-08-31T00:25:58.616Z,0
2017-08-31T00:26:39.138Z,0
2017-08-31T00:27:19.697Z,0
2017-08-31T00:28:00.263Z,0
2017-08-31T00:28:40.747Z,0
2017-08-31T00:29:21.287Z,0
2017-08-31T00:30:01.831Z,0
2017-08-31T00:30:42.367Z,0
2017-08-31T00:31:22.936Z,0
2017-08-31T00:32:03.465Z,0
2017-08-31T00:32:44.038Z,0
2017-08-31T00:33:24.559Z,0
2017-08-31T00:34:05.084Z,0
2017-08-31T00:34:45.629Z,0
2017-08-31T00:35:26.156Z,0
2017-08-31T00:36:06.687Z,0
2017-08-31T00:36:47.258Z,0
2017-08-31T00:37:27.801Z,0
2017-08-31T00:38:08.378Z,0
2017-08-31T00:38:48.907Z,0
2017-08-31T00:39:29.441Z,0
2017-08-31T00:40:09.959Z,0
2017-08-31T00:40:50.497Z,0
2017-08-31T00:41:31.098Z,0
2017-08-31T00:42:11.601Z,0
2017-08-31T00:42:52.164Z,0
2017-08-31T00:43:32.725Z,0
2017-08-31T00:44:13.282Z,0
2017-08-31T00:44:53.867Z,0
2017-08-31T00:45:34.416Z,0
2017-08-31T00:46:14.947Z,0
2017-08-31T00:46:55.490Z,0
2017-08-31T00:47:36.068Z,0
2017-08-31T00:48:16.582Z,0
2017-08-31T00:48:57.122Z,0
2017-08-31T00:49:37.683Z,0
2017-08-31T00:50:18.258Z,0
2017-08-31T00:50:58.783Z,0
2017-08-31T00:51:39.319Z,0
2017-08-31T00:52:19.879Z,0
2017-08-31T00:53:00.434Z,0
2017-08-31T00:53:40.910Z,0
2017-08-31T00:54:21.509Z,0
2017-08-31T00:55:02.119Z,0
2017-08-31T00:55:42.645Z,0
2017-08-31T00:56:23.241Z,0
2017-08-31T00:57:03.775Z,0
2017-08-31T00:57:44.290Z,0
2017-08-31T00:58:24.813Z,0
2017-08-31T00:59:05.345Z,0
2017-08-31T00:59:45.933Z,0
2017-08-31T01:00:26.457Z,0
2017-08-31T01:01:06.960Z,0
2017-08-31T01:01:47.519Z,0
2017-08-31T01:02:28.044Z,0
2017-08-31T01:03:08.602Z,0
2017-08-31T01:03:49.156Z,0
2017-08-31T01:04:29.723Z,0
2017-08-31T01:05:10.323Z,0
2017-08-31T01:05:50.863Z,0
2017-08-31T01:06:31.363Z,0
2017-08-31T01:07:11.917Z,0
2017-08-31T01:07:52.427Z,0
2017-08-31T01:08:32.979Z,0
2017-08-31T01:09:13.528Z,0
2017-08-31T01:09:54.042Z,0
2017-08-31T01:10:34.615Z,0
2017-08-31T01:11:15.175Z,0
2017-08-31T01:11:55.721Z,0
2017-08-31T01:12:36.263Z,0
2017-08-31T01:13:16.748Z,0
2017-08-31T01:13:57.333Z,0
2017-08-31T01:14:37.820Z,0
2017-08-31T01:15:18.351Z,0
2017-08-31T01:15:58.923Z,0
2017-08-31T01:16:39.468Z,0
2017-08-31T01:17:20.017Z,0
2017-08-31T01:18:00.531Z,0
2017-08-31T01:18:41.075Z,0
2017-08-31T01:19:21.621Z,0
2017-08-31T01:20:02.144Z,0
2017-08-31T01:20:42.689Z,0
2017-08-31T01:21:23.215Z,0
2017-08-31T01:22:03.763Z,0
2017-08-31T01:22:44.330Z,0
2017-08-31T01:23:24.841Z,0
2017-08-31T01:24:05.384Z,0
2017-08-31T01:24:45.905Z,0
2017-08-31T01:25:26.458Z,0
2017-08-31T01:26:06.992Z,0
2017-08-31T01:26:47.549Z,0
2017-08-31T01:27:28.033Z,0
2017-08-31T01:28:08.569Z,0
2017-08-31T01:28:49.170Z,0
2017-08-31T01:29:29.720Z,0
2017-08-31T01:30:10.205Z,0
2017-08-31T01:30:50.811Z,0
2017-08-31T01:31:31.326Z,0
2017-08-31T01:32:11.901Z,0
2017-08-31T01:32:52.450Z,0
2017-08-31T01:33:33.038Z,0
2017-08-31T01:34:13.612Z,0
2017-08-31T01:34:54.149Z,0
2017-08-31T01:35:34.657Z,0
2017-08-31T01:36:15.252Z,0
2017-08-31T01:36:55.761Z,0
2017-08-31T01:37:36.327Z,0
2017-08-31T01:38:16.893Z,0
2017-08-31T01:38:57.409Z,0
2017-08-31T01:39:37.969Z,0
2017-08-31T01:40:18.534Z,0
2017-08-31T01:40:59.071Z,0
2017-08-31T01:41:39.571Z,0
2017-08-31T01:42:20.133Z,0
2017-08-31T01:43:00.668Z,0
2017-08-31T01:43:41.232Z,0
2017-08-31T01:44:21.800Z,0
2017-08-31T01:45:02.363Z,0
2017-08-31T01:45:42.883Z,0
2017-08-31T01:46:23.443Z,0
2017-08-31T01:47:04.001Z,0
2017-08-31T01:47:44.578Z,0
2017-08-31T01:48:25.114Z,0
2017-08-31T01:49:05.627Z,0
2017-08-31T01:49:46.168Z,0
2017-08-31T01:50:26.696Z,0
2017-08-31T01:51:07.245Z,0
2017-08-31T01:51:47.803Z,0
2017-08-31T01:52:28.349Z,0
2017-08-31T01:53:08.910Z,0
2017-08-31T01:53:49.528Z,0
2017-08-31T01:54:30.035Z,0
2017-08-31T01:55:10.576Z,0
2017-08-31T01:55:51.080Z,0
2017-08-31T01:56:31.636Z,0
2017-08-31T01:57:12.155Z,0
2017-08-31T01:57:52.719Z,0
2017-08-31T01:58:33.248Z,0
2017-08-31T01:59:13.791Z,0
2017-08-31T01:59:54.362Z,0
2017-08-31T02:00:34.930Z,0
2017-08-31T02:01:15.500Z,0
2017-08-31T02:01:55.995Z,0
2017-08-31T02:02:36.511Z,0
2017-08-31T02:03:17.061Z,0
2017-08-31T02:03:57.603Z,0
2017-08-31T02:04:38.180Z,0
2017-08-31T02:05:18.749Z,0
2017-08-31T02:05:59.285Z,0
2017-08-31T02:06:39.840Z,0
2017-08-31T02:07:20.364Z,0
2017-08-31T02:08:00.910Z,0
2017-08-31T02:08:41.453Z,0
2017-08-31T02:09:22.008Z,0
2017-08-31T02:10:02.547Z,0
2017-08-31T02:10:43.097Z,0
2017-08-31T02:11:23.670Z,0
2017-08-31T02:12:04.209Z,0
2017-08-31T02:12:44.709Z,0
2017-08-31T02:13:25.257Z,0
2017-08-31T02:14:05.841Z,0
2017-08-31T02:14:46.379Z,0
2017-08-31T02:15:26.892Z,0
2017-08-31T02:16:07.479Z,0
2017-08-31T02:16:48.001Z,0
2017-08-31T02:17:28.528Z,0
2017-08-31T02:18:09.098Z,0
2017-08-31T02:18:49.636Z,0
2017-08-31T02:19:30.176Z,0
2017-08-31T02:20:10.775Z,0
2017-08-31T02:20:51.297Z,0
2017-08-31T02:21:31.842Z,0
2017-08-31T02:22:12.356Z,0
2017-08-31T02:22:52.920Z,0
2017-08-31T02:23:33.488Z,0
2017-08-31T02:24:14.049Z,0
2017-08-31T02:24:54.578Z,0
2017-08-31T02:25:35.152Z,0
2017-08-31T02:26:15.766Z,0
2017-08-31T02:26:56.326Z,0
2017-08-31T02:27:36.855Z,0
2017-08-31T02:28:17.404Z,0
2017-08-31T02:28:57.974Z,0
2017-08-31T02:29:38.497Z,0
2017-08-31T02:30:18.995Z,0
2017-08-31T02:30:59.551Z,0
2017-08-31T02:31:40.067Z,0
2017-08-31T02:32:20.627Z,0
2017-08-31T02:33:01.157Z,0
2017-08-31T02:33:41.663Z,0
2017-08-31T02:34:22.220Z,0
2017-08-31T02:35:02.754Z,0
2017-08-31T02:35:43.270Z,0
2017-08-31T02:36:23.770Z,0
2017-08-31T02:37:04.335Z,0
2017-08-31T02:37:44.887Z,0
2017-08-31T02:38:25.407Z,0
2017-08-31T02:39:05.965Z,0
2017-08-31T02:39:46.509Z,0
2017-08-31T02:40:27.041Z,0
2017-08-31T02:41:07.591Z,0
2017-08-31T02:41:48.114Z,0
2017-08-31T02:42:28.687Z,0
2017-08-31T02:43:09.220Z,0
2017-08-31T02:43:49.713Z,0
2017-08-31T02:44:30.236Z,0
2017-08-31T02:45:10.739Z,0
2017-08-31T02:45:51.266Z,0
2017-08-31T02:46:31.849Z,0
2017-08-31T02:47:12.352Z,0
2017-08-31T02:47:52.876Z,0
2017-08-31T02:48:33.403Z,0
2017-08-31T02:49:13.987Z,0
2017-08-31T02:49:54.536Z,0
2017-08-31T02:50:35.088Z,0
2017-08-31T02:51:15.592Z,0
2017-08-31T02:51:56.117Z,0
2017-08-31T02:52:36.710Z,0
2017-08-31T02:53:17.245Z,0
2017-08-31T02:53:57.775Z,0
2017-08-31T02:54:38.340Z,0
2017-08-31T02:55:18.934Z,0
2017-08-31T02:55:59.455Z,0
2017-08-31T02:56:40.010Z,0
2017-08-31T02:57:20.563Z,0
2017-08-31T02:58:01.112Z,0
2017-08-31T02:58:41.645Z,0
2017-08-31T02:59:22.206Z,0
2017-08-31T03:00:02.732Z,0
2017-08-31T03:00:43.254Z,0
2017-08-31T03:01:23.834Z,0
2017-08-31T03:02:04.390Z,0
2017-08-31T03:02:44.916Z,0
2017-08-31T03:03:25.485Z,0
2017-08-31T03:04:06.018Z,0
2017-08-31T03:04:46.560Z,0
2017-08-31T03:05:27.075Z,0
2017-08-31T03:06:07.628Z,0
2017-08-31T03:06:48.148Z,0
2017-08-31T03:07:28.708Z,0
2017-08-31T03:08:09.235Z,0
2017-08-31T03:08:49.773Z,0
2017-08-31T03:09:30.315Z,0
2017-08-31T03:10:10.872Z,0
2017-08-31T03:10:51.393Z,0
2017-08-31T03:11:31.950Z,0
2017-08-31T03:12:12.465Z,0
2017-08-31T03:12:53.022Z,0
2017-08-31T03:13:33.528Z,0
2017-08-31T03:14:14.101Z,0
2017-08-31T03:14:54.652Z,0
2017-08-31T03:15:35.180Z,0
2017-08-31T03:16:15.730Z,0
2017-08-31T03:16:56.260Z,0
2017-08-31T03:17:36.763Z,0
2017-08-31T03:18:17.324Z,0
2017-08-31T03:18:57.834Z,0
2017-08-31T03:19:38.368Z,0
2017-08-31T03:20:18.907Z,0
2017-08-31T03:20:59.469Z,0
2017-08-31T03:21:39.985Z,0
2017-08-31T03:22:20.538Z,0
2017-08-31T03:23:01.034Z,0
2017-08-31T03:23:41.601Z,0
2017-08-31T03:24:22.177Z,0
2017-08-31T03:25:02.696Z,0
2017-08-31T03:25:43.270Z,0
2017-08-31T03:26:23.796Z,0
2017-08-31T03:27:04.374Z,0
2017-08-31T03:27:44.943Z,0
2017-08-31T03:28:25.492Z,0
2017-08-31T03:29:06.011Z,0
2017-08-31T03:29:46.607Z,0
2017-08-31T03:30:27.169Z,0
2017-08-31T03:31:07.685Z,0
2017-08-31T03:31:48.235Z,0
2017-08-31T03:32:28.801Z,0
2017-08-31T03:33:09.363Z,0
2017-08-31T03:33:49.866Z,0
2017-08-31T03:34:30.462Z,0
2017-08-31T03:35:11.004Z,0
2017-08-31T03:35:51.573Z,0
2017-08-31T03:36:32.116Z,0
2017-08-31T03:37:12.664Z,0
2017-08-31T03:37:53.186Z,0
2017-08-31T03:38:33.713Z,0
2017-08-31T03:39:14.264Z,0
2017-08-31T03:39:54.798Z,0
2017-08-31T03:40:35.341Z,0
2017-08-31T03:41:15.921Z,0
2017-08-31T03:41:56.452Z,0
2017-08-31T03:42:36.993Z,0
2017-08-31T03:43:17.548Z,0
2017-08-31T03:43:58.128Z,0
2017-08-31T03:44:38.624Z,0
2017-08-31T03:45:19.224Z,0
2017-08-31T03:45:59.782Z,0
2017-08-31T03:46:40.290Z,0
2017-08-31T03:47:20.848Z,0
2017-08-31T03:48:01.417Z,0
2017-08-31T03:48:41.950Z,0
2017-08-31T03:49:22.493Z,0
2017-08-31T03:50:02.998Z,0
2017-08-31T03:50:43.588Z,0
2017-08-31T03:51:24.138Z,0
2017-08-31T03:52:04.666Z,0
2017-08-31T03:52:45.182Z,0
2017-08-31T03:53:25.688Z,0
2017-08-31T03:54:06.244Z,0
2017-08-31T03:54:46.880Z,0
2017-08-31T03:55:27.401Z,0
2017-08-31T03:56:07.958Z,0
2017-08-31T03:56:48.491Z,0
2017-08-31T03:57:29.011Z,0
2017-08-31T03:58:09.550Z,0
2017-08-31T03:58:50.101Z,0
2017-08-31T03:59:30.641Z,0
2017-08-31T04:00:11.149Z,0
2017-08-31T04:00:51.750Z,0
2017-08-31T04:01:32.312Z,0
2017-08-31T04:02:12.888Z,0
2017-08-31T04:02:53.440Z,0
2017-08-31T04:03:33.991Z,0
2017-08-31T04:04:14.508Z,0
2017-08-31T04:04:55.040Z,0
2017-08-31T04:05:35.617Z,0
2017-08-31T04:06:16.159Z,0
2017-08-31T04:06:56.679Z,0
2017-08-31T04:07:37.296Z,0
2017-08-31T04:08:17.771Z,0
2017-08-31T04:08:58.328Z,0
2017-08-31T04:09:38.850Z,0
2017-08-31T04:10:19.517Z,0
2017-08-31T04:11:00.132Z,0
2017-08-31T04:11:40.623Z,0
2017-08-31T04:12:21.215Z,0
2017-08-31T04:13:01.781Z,0
2017-08-31T04:13:42.307Z,0
2017-08-31T04:14:22.919Z,0
2017-08-31T04:15:03.404Z,0
2017-08-31T04:15:43.986Z,0
2017-08-31T04:16:24.541Z,0
2017-08-31T04:17:05.064Z,0
2017-08-31T04:17:45.663Z,0
2017-08-31T04:18:26.206Z,0
2017-08-31T04:19:06.789Z,0
2017-08-31T04:19:47.314Z,0
2017-08-31T04:20:27.848Z,0
2017-08-31T04:21:08.410Z,0
2017-08-31T04:21:49.034Z,0
2017-08-31T04:22:29.574Z,0
2017-08-31T04:23:10.135Z,0
2017-08-31T04:23:50.656Z,0
2017-08-31T04:24:31.184Z,0
2017-08-31T04:25:11.776Z,0
2017-08-31T04:25:52.282Z,0
2017-08-31T04:26:32.787Z,0
2017-08-31T04:27:13.370Z,0
2017-08-31T04:27:53.898Z,0
2017-08-31T04:28:34.494Z,0
2017-08-31T04:29:15.000Z,0
2017-08-31T04:29:55.551Z,0
2017-08-31T04:30:36.054Z,0
2017-08-31T04:31:16.736Z,0
2017-08-31T04:31:57.189Z,0
2017-08-31T04:32:37.754Z,0
2017-08-31T04:33:18.332Z,0
2017-08-31T04:33:58.868Z,0
2017-08-31T04:34:39.417Z,0
2017-08-31T04:35:19.978Z,0
2017-08-31T04:36:00.538Z,0
2017-08-31T04:36:41.076Z,0
2017-08-31T04:37:21.677Z,0
2017-08-31T04:38:02.213Z,0
2017-08-31T04:38:42.769Z,0
2017-08-31T04:39:23.276Z,0
2017-08-31T04:40:03.875Z,0
2017-08-31T04:40:44.421Z,0
2017-08-31T04:41:25.020Z,0
2017-08-31T04:42:05.530Z,0
2017-08-31T04:42:46.094Z,0
2017-08-31T04:43:26.652Z,0
2017-08-31T04:44:07.190Z,0
2017-08-31T04:44:47.749Z,0
2017-08-31T04:45:28.324Z,0
2017-08-31T04:46:08.906Z,0
2017-08-31T04:46:49.413Z,0
2017-08-31T04:47:30.018Z,0
2017-08-31T04:48:10.499Z,0
2017-08-31T04:48:51.050Z,0
2017-08-31T04:49:31.674Z,0
2017-08-31T04:50:12.184Z,0
2017-08-31T04:50:52.736Z,0
2017-08-31T04:51:33.369Z,0
2017-08-31T04:52:13.925Z,0
2017-08-31T04:52:54.424Z,0
2017-08-31T04:53:35.077Z,0
2017-08-31T04:54:15.609Z,0
2017-08-31T04:54:56.144Z,0
2017-08-31T04:55:36.671Z,0
2017-08-31T04:56:17.351Z,0
2017-08-31T04:56:57.846Z,0
2017-08-31T04:57:38.344Z,0
2017-08-31T04:58:18.933Z,0
2017-08-31T04:58:59.592Z,0
2017-08-31T04:59:40.115Z,0
2017-08-31T05:00:20.660Z,0
2017-08-31T05:01:01.192Z,0
2017-08-31T05:01:41.754Z,0
2017-08-31T05:02:22.282Z,0
2017-08-31T05:03:02.859Z,5
2017-08-31T05:03:43.371Z,5
2017-08-31T05:04:23.952Z,5
2017-08-31T05:05:04.460Z,5
2017-08-31T05:05:45.086Z,5
2017-08-31T05:06:25.627Z,5
2017-08-31T05:07:06.155Z,5
2017-08-31T05:07:46.711Z,5
2017-08-31T05:08:27.249Z,10
2017-08-31T05:09:07.771Z,10
2017-08-31T05:09:48.479Z,10
2017-08-31T05:10:29.007Z,10
2017-08-31T05:11:09.579Z,10
2017-08-31T05:11:50.114Z,10
2017-08-31T05:12:30.660Z,5
2017-08-31T05:13:11.223Z,5
2017-08-31T05:13:51.771Z,5
2017-08-31T05:14:32.359Z,5
2017-08-31T05:15:12.871Z,5
2017-08-31T05:15:53.432Z,5
2017-08-31T05:16:33.934Z,5
2017-08-31T05:17:14.532Z,5
2017-08-31T05:17:55.092Z,5
2017-08-31T05:18:35.694Z,5
2017-08-31T05:19:16.181Z,5
2017-08-31T05:19:56.784Z,5
2017-08-31T05:20:37.505Z,5
2017-08-31T05:21:17.936Z,5
2017-08-31T05:21:58.553Z,5
2017-08-31T05:22:39.143Z,5
2017-08-31T05:23:19.666Z,5
2017-08-31T05:24:00.258Z,5
2017-08-31T05:24:40.794Z,5
2017-08-31T05:25:21.319Z,5
2017-08-31T05:26:01.858Z,5
2017-08-31T05:26:42.421Z,5
2017-08-31T05:27:23.039Z,5
2017-08-31T05:28:03.641Z,5
2017-08-31T05:28:44.090Z,5
2017-08-31T05:29:24.669Z,5
2017-08-31T05:30:05.215Z,5
2017-08-31T05:30:45.892Z,5
2017-08-31T05:31:26.460Z,10
2017-08-31T05:32:07.030Z,10
2017-08-31T05:32:47.572Z,10
2017-08-31T05:33:28.127Z,10
2017-08-31T05:34:08.658Z,10
2017-08-31T05:34:49.347Z,10
2017-08-31T05:35:30.136Z,10
2017-08-31T05:36:10.648Z,10
2017-08-31T05:36:51.144Z,10
2017-08-31T05:37:31.719Z,10
2017-08-31T05:38:12.280Z,10
2017-08-31T05:38:53.642Z,15
2017-08-31T05:39:34.169Z,15
2017-08-31T05:40:14.693Z,15
2017-08-31T05:40:55.204Z,15
2017-08-31T05:41:35.785Z,15
2017-08-31T05:42:16.293Z,15
2017-08-31T05:42:56.891Z,20
2017-08-31T05:43:37.367Z,20
2017-08-31T05:44:18.447Z,20
2017-08-31T05:44:59.004Z,20
2017-08-31T05:45:39.511Z,20
2017-08-31T05:46:20.029Z,20
2017-08-31T05:47:00.590Z,20
2017-08-31T05:47:41.224Z,20
2017-08-31T05:48:22.362Z,20
2017-08-31T05:49:03.386Z,20
2017-08-31T05:49:46.457Z,20
2017-08-31T05:50:27.010Z,20
2017-08-31T05:51:07.585Z,20
2017-08-31T05:51:48.102Z,15
2017-08-31T05:52:28.686Z,15
2017-08-31T05:53:09.297Z,15
2017-08-31T05:53:50.054Z,15
2017-08-31T05:54:30.380Z,15
2017-08-31T05:55:10.943Z,15
2017-08-31T05:55:51.525Z,15
2017-08-31T05:56:32.023Z,15
2017-08-31T05:57:12.654Z,15
2017-08-31T05:57:53.288Z,15
2017-08-31T05:58:35.008Z,15
2017-08-31T05:59:15.520Z,15
2017-08-31T05:59:56.063Z,15
2017-08-31T06:00:36.701Z,15
2017-08-31T06:01:17.268Z,20
2017-08-31T06:01:57.817Z,20
2017-08-31T06:02:38.399Z,25
2017-08-31T06:03:19.207Z,25
2017-08-31T06:03:59.853Z,30
2017-08-31T06:05:06.071Z,35
2017-08-31T06:05:46.645Z,40
2017-08-31T06:06:28.146Z,40
2017-08-31T06:07:08.696Z,40
2017-08-31T06:07:49.574Z,40
2017-08-31T06:08:30.180Z,40
2017-08-31T06:09:10.767Z,40
2017-08-31T06:09:51.408Z,40
2017-08-31T06:10:32.078Z,45
2017-08-31T06:11:12.719Z,45
2017-08-31T06:11:53.421Z,45
2017-08-31T06:12:34.284Z,50
2017-08-31T06:13:17.884Z,50
2017-08-31T06:13:58.397Z,50
2017-08-31T06:14:39.354Z,55
2017-08-31T06:15:19.930Z,55
2017-08-31T06:16:00.571Z,60
2017-08-31T06:16:41.197Z,60
2017-08-31T06:17:21.784Z,60
2017-08-31T06:18:02.342Z,60
2017-08-31T06:18:42.921Z,55
2017-08-31T06:19:23.611Z,55
2017-08-31T06:20:04.265Z,45
2017-08-31T06:20:44.976Z,40
2017-08-31T06:21:25.582Z,35
2017-08-31T06:22:06.184Z,35
2017-08-31T06:22:46.869Z,35
2017-08-31T06:23:27.455Z,35
2017-08-31T06:24:07.958Z,35
2017-08-31T06:24:48.545Z,30
2017-08-31T06:25:29.116Z,30
2017-08-31T06:26:09.748Z,35
2017-08-31T06:26:50.323Z,40
2017-08-31T06:27:30.925Z,45
2017-08-31T06:28:11.566Z,40
2017-08-31T06:28:52.122Z,40
2017-08-31T06:29:32.700Z,45
2017-08-31T06:30:13.310Z,45
2017-08-31T06:30:53.929Z,45
2017-08-31T06:31:34.553Z,50
2017-08-31T06:32:15.110Z,45
2017-08-31T06:32:55.669Z,55
2017-08-31T06:33:36.288Z,60
2017-08-31T06:34:16.845Z,60
2017-08-31T06:34:57.437Z,60
2017-08-31T06:35:38.049Z,60
2017-08-31T06:36:18.652Z,55
2017-08-31T06:36:59.199Z,55
2017-08-31T06:37:39.819Z,55
2017-08-31T06:38:20.353Z,55
2017-08-31T06:39:00.951Z,55
2017-08-31T06:39:41.580Z,55
2017-08-31T06:40:22.110Z,45
2017-08-31T06:41:02.661Z,50
2017-08-31T06:41:43.231Z,55
2017-08-31T06:42:23.897Z,55
2017-08-31T06:43:04.451Z,65
2017-08-31T06:43:45.027Z,80
2017-08-31T06:44:25.622Z,80
2017-08-31T06:45:06.133Z,65
2017-08-31T06:45:46.700Z,50
2017-08-31T06:46:27.248Z,45
2017-08-31T06:47:07.855Z,55
2017-08-31T06:47:48.444Z,45
2017-08-31T06:48:29.040Z,40
2017-08-31T06:49:09.581Z,30
2017-08-31T06:49:50.174Z,30
2017-08-31T06:50:30.721Z,30
2017-08-31T06:51:11.271Z,40
2017-08-31T06:51:51.891Z,40
2017-08-31T06:52:32.425Z,50
2017-08-31T06:53:13.049Z,55
2017-08-31T06:53:53.667Z,60
2017-08-31T06:54:34.251Z,60
2017-08-31T06:57:08.056Z,75
2017-08-31T06:57:48.636Z,80
2017-08-31T06:58:29.210Z,80
2017-08-31T06:59:09.763Z,80
2017-08-31T06:59:50.331Z,80
2017-08-31T07:00:30.889Z,80
2017-08-31T07:01:11.467Z,80
2017-08-31T07:01:52.022Z,85
2017-08-31T07:02:32.562Z,90
2017-08-31T07:03:13.110Z,90
2017-08-31T07:03:53.663Z,95
2017-08-31T07:04:34.200Z,90
2017-08-31T07:05:14.744Z,90
2017-08-31T07:05:55.297Z,85
2017-08-31T07:06:35.853Z,85
2017-08-31T07:07:16.413Z,80
2017-08-31T07:07:57.077Z,80
2017-08-31T07:08:37.662Z,80
2017-08-31T07:09:18.198Z,80
2017-08-31T07:09:58.785Z,80
2017-08-31T07:10:39.307Z,75
2017-08-31T07:11:19.877Z,70
2017-08-31T07:12:00.434Z,65
2017-08-31T07:12:40.985Z,65
2017-08-31T07:13:21.604Z,65
2017-08-31T07:14:02.171Z,65
2017-08-31T07:14:42.713Z,70
2017-08-31T07:15:23.305Z,70
2017-08-31T07:16:03.881Z,75
2017-08-31T07:16:44.438Z,80
2017-08-31T07:17:24.954Z,80
2017-08-31T07:18:05.511Z,80
2017-08-31T07:18:46.089Z,75
2017-08-31T07:19:26.673Z,75
2017-08-31T07:20:07.222Z,75
2017-08-31T07:20:47.807Z,75
2017-08-31T07:21:28.378Z,75
2017-08-31T07:22:08.935Z,80
2017-08-31T07:22:49.525Z,80
2017-08-31T07:23:30.148Z,85
2017-08-31T07:24:10.697Z,85
2017-08-31T07:24:51.419Z,85
2017-08-31T07:25:31.949Z,85
2017-08-31T07:26:12.530Z,85
2017-08-31T07:26:53.121Z,85
2017-08-31T07:27:33.700Z,85
2017-08-31T07:28:14.289Z,90
2017-08-31T07:28:54.846Z,95
2017-08-31T07:29:35.392Z,100
2017-08-31T07:30:16.007Z,105
2017-08-31T07:30:56.555Z,105
2017-08-31T07:31:37.098Z,100
2017-08-31T07:32:17.670Z,95
2017-08-31T07:32:58.216Z,70
2017-08-31T07:33:38.850Z,55
2017-08-31T07:34:19.412Z,45
2017-08-31T07:34:59.972Z,35
2017-08-31T07:35:40.539Z,30
2017-08-31T07:36:21.113Z,30
2017-08-31T07:37:01.711Z,30
2017-08-31T07:37:42.302Z,25
2017-08-31T07:38:22.891Z,20
2017-08-31T07:39:03.476Z,20
2017-08-31T07:39:44.021Z,15
2017-08-31T07:40:24.588Z,20
2017-08-31T07:41:05.220Z,20
2017-08-31T07:41:45.770Z,20
2017-08-31T07:42:26.381Z,20
2017-08-31T07:43:06.911Z,20
2017-08-31T07:43:47.469Z,20
2017-08-31T07:44:28.079Z,15
2017-08-31T07:45:08.637Z,20
2017-08-31T07:45:49.175Z,25
2017-08-31T07:46:29.807Z,25
2017-08-31T07:47:10.348Z,30
2017-08-31T07:47:50.948Z,25
2017-08-31T07:48:31.508Z,25
2017-08-31T07:49:12.075Z,15
2017-08-31T07:49:52.635Z,15
2017-08-31T07:50:33.189Z,20
2017-08-31T07:51:13.795Z,25
2017-08-31T07:51:54.412Z,35
2017-08-31T07:52:34.997Z,40
2017-08-31T07:53:15.507Z,45
2017-08-31T07:53:56.097Z,50
2017-08-31T07:54:36.637Z,55
2017-08-31T07:55:17.254Z,65
2017-08-31T07:55:57.840Z,65
2017-08-31T07:56:38.423Z,65
2017-08-31T07:57:18.958Z,65
2017-08-31T07:57:59.485Z,60
2017-08-31T07:58:40.121Z,60
2017-08-31T07:59:20.661Z,60
2017-08-31T08:00:01.249Z,60
2017-08-31T08:00:41.798Z,60
2017-08-31T08:01:22.357Z,60
2017-08-31T08:02:02.930Z,60
2017-08-31T08:02:43.511Z,55
2017-08-31T08:03:24.066Z,55
2017-08-31T08:04:04.665Z,50
2017-08-31T08:04:45.208Z,50
2017-08-31T08:05:25.845Z,50
2017-08-31T08:06:06.375Z,50
2017-08-31T08:06:46.978Z,55
2017-08-31T08:07:27.572Z,55
2017-08-31T08:08:08.333Z,55
2017-08-31T08:08:48.912Z,55
2017-08-31T08:09:29.521Z,55
2017-08-31T08:10:10.149Z,55
2017-08-31T08:10:50.735Z,60
2017-08-31T08:11:31.319Z,60
2017-08-31T08:12:11.935Z,65
2017-08-31T08:12:52.468Z,70
2017-08-31T08:13:33.008Z,70
2017-08-31T08:14:13.641Z,75
2017-08-31T08:14:54.203Z,75
2017-08-31T08:15:34.892Z,75
2017-08-31T08:16:15.440Z,75
2017-08-31T08:16:56.421Z,75
2017-08-31T08:17:37.108Z,75
2017-08-31T08:18:17.678Z,75
2017-08-31T08:18:58.324Z,75
2017-08-31T08:19:38.942Z,75
2017-08-31T08:20:19.466Z,75
2017-08-31T08:21:00.106Z,75
2017-08-31T08:21:40.649Z,80
2017-08-31T08:22:21.355Z,85
2017-08-31T08:23:01.945Z,85
2017-08-31T08:23:42.559Z,90
2017-08-31T08:24:23.115Z,95
2017-08-31T08:25:03.672Z,105
2017-08-31T08:25:44.254Z,105
2017-08-31T08:26:24.810Z,105
2017-08-31T08:27:05.404Z,105
2017-08-31T08:27:46.012Z,90
2017-08-31T08:28:26.640Z,85
2017-08-31T08:29:07.209Z,95
2017-08-31T08:29:47.774Z,90
2017-08-31T08:30:28.475Z,90
2017-08-31T08:31:09.113Z,90
2017-08-31T08:31:49.629Z,95
2017-08-31T08:32:30.241Z,100
2017-08-31T08:33:10.818Z,110
2017-08-31T08:33:51.474Z,110
2017-08-31T08:34:32.011Z,120
2017-08-31T08:35:12.579Z,125
2017-08-31T08:35:53.131Z,125
2017-08-31T08:36:33.702Z,135
2017-08-31T08:37:14.321Z,140
2017-08-31T08:37:54.869Z,145
2017-08-31T08:38:35.540Z,150
2017-08-31T08:39:16.179Z,145
2017-08-31T08:39:56.718Z,145
2017-08-31T08:40:37.288Z,135
2017-08-31T08:41:17.845Z,125
2017-08-31T08:41:58.391Z,145
2017-08-31T08:42:39.016Z,130
2017-08-31T08:43:19.592Z,110
2017-08-31T08:44:00.144Z,110
2017-08-31T08:44:40.757Z,120
2017-08-31T08:45:21.294Z,130
2017-08-31T08:46:01.913Z,130
2017-08-31T08:46:42.471Z,130
2017-08-31T08:47:23.017Z,130
2017-08-31T08:48:03.636Z,130
2017-08-31T08:48:44.209Z,135
2017-08-31T08:49:24.778Z,130
2017-08-31T08:50:05.388Z,125
2017-08-31T08:50:45.982Z,125
2017-08-31T08:51:26.629Z,120
2017-08-31T08:52:07.160Z,120
2017-08-31T08:52:47.747Z,115
2017-08-31T08:53:28.287Z,115
2017-08-31T08:54:08.895Z,110
2017-08-31T08:54:49.451Z,110
2017-08-31T08:55:29.986Z,110
2017-08-31T08:56:10.655Z,105
2017-08-31T08:56:51.177Z,105
2017-08-31T08:57:31.795Z,100
2017-08-31T08:58:12.359Z,100
2017-08-31T08:58:52.897Z,95
2017-08-31T08:59:33.545Z,90
2017-08-31T09:00:14.050Z,90
2017-08-31T09:00:54.587Z,90
2017-08-31T09:01:35.204Z,80
2017-08-31T09:02:15.753Z,80
2017-08-31T09:02:56.345Z,80
2017-08-31T09:03:36.927Z,75
2017-08-31T09:04:17.574Z,75
2017-08-31T09:04:58.081Z,70
2017-08-31T09:05:39.123Z,70
2017-08-31T09:06:19.592Z,75
2017-08-31T09:07:00.362Z,75
2017-08-31T09:07:40.906Z,85
2017-08-31T09:08:21.445Z,90
2017-08-31T09:09:02.064Z,85
2017-08-31T09:09:42.604Z,95
2017-08-31T09:10:23.234Z,105
2017-08-31T09:11:03.783Z,115
2017-08-31T09:11:44.348Z,120
2017-08-31T09:12:24.934Z,125
2017-08-31T09:13:05.488Z,125
2017-08-31T09:13:46.094Z,125
2017-08-31T09:14:26.659Z,135
2017-08-31T09:15:07.232Z,125
2017-08-31T09:15:47.810Z,130
2017-08-31T09:16:28.424Z,135
2017-08-31T09:17:08.984Z,140
2017-08-31T09:17:49.641Z,130
2017-08-31T09:18:30.159Z,130
2017-08-31T09:19:10.725Z,120
2017-08-31T09:19:51.320Z,115
2017-08-31T09:20:31.963Z,120
2017-08-31T09:21:12.491Z,130
2017-08-31T09:21:53.060Z,130
2017-08-31T09:22:33.591Z,130
2017-08-31T09:23:14.218Z,135
2017-08-31T09:23:54.851Z,135
2017-08-31T09:24:35.360Z,135
2017-08-31T09:25:15.946Z,130
2017-08-31T09:25:56.517Z,130
2017-08-31T09:26:37.085Z,125
2017-08-31T09:27:17.630Z,130
2017-08-31T09:27:58.211Z,125
2017-08-31T09:28:38.810Z,125
2017-08-31T09:29:19.380Z,125
2017-08-31T09:29:59.951Z,125
2017-08-31T09:30:40.598Z,125
2017-08-31T09:31:21.122Z,125
2017-08-31T09:32:01.685Z,130
2017-08-31T09:32:42.280Z,130
2017-08-31T09:33:22.887Z,140
2017-08-31T09:34:03.570Z,140
2017-08-31T09:34:44.000Z,145
2017-08-31T09:35:24.671Z,150
2017-08-31T09:36:05.236Z,150
2017-08-31T09:36:45.765Z,155
2017-08-31T09:37:26.368Z,155
2017-08-31T09:38:06.944Z,155
2017-08-31T09:38:47.505Z,160
2017-08-31T09:39:28.260Z,170
2017-08-31T09:40:08.865Z,165
2017-08-31T09:40:49.483Z,165
2017-08-31T09:41:30.022Z,170
2017-08-31T09:42:10.599Z,170
2017-08-31T09:42:51.145Z,170
2017-08-31T09:43:31.756Z,170
2017-08-31T09:44:12.313Z,165
2017-08-31T09:44:52.918Z,165
2017-08-31T09:45:33.514Z,160
2017-08-31T09:46:14.079Z,155
2017-08-31T09:46:54.661Z,150
2017-08-31T09:47:35.278Z,135
2017-08-31T09:48:15.844Z,125
2017-08-31T09:48:56.406Z,120
2017-08-31T09:49:36.986Z,105
2017-08-31T09:50:17.635Z,95